createdAt,value
2022-11-16T00:02:59.923Z,51.28
2022-11-16T00:08:03.408Z,51.39
2022-11-16T00:13:06.849Z,51.44
2022-11-16T00:18:10.362Z,51.22
2022-11-16T00:23:13.794Z,51.26
2022-11-16T00:28:17.216Z,51.46
2022-11-16T00:33:20.704Z,51.48
2022-11-16T00:38:24.226Z,51.54
2022-11-16T00:43:27.766Z,51.52
2022-11-16T00:48:31.555Z,51.52
2022-11-16T00:53:35.416Z,51.56
2022-11-16T00:58:39.066Z,51.56
2022-11-16T01:03:42.557Z,51.60
2022-11-16T01:08:45.981Z,51.55
2022-11-16T01:13:49.549Z,51.55
2022-11-16T01:18:52.972Z,51.53
2022-11-16T01:23:57.139Z,51.50
2022-11-16T01:29:00.611Z,51.53
2022-11-16T01:34:04.033Z,51.50
2022-11-16T01:39:07.459Z,51.52
2022-11-16T01:44:10.868Z,51.54
2022-11-16T01:49:14.303Z,51.58
2022-11-16T01:54:17.749Z,51.62
2022-11-16T01:59:21.260Z,51.61
2022-11-16T02:04:24.771Z,51.61
2022-11-16T02:09:46.188Z,51.58
2022-11-16T02:14:49.678Z,51.71
2022-11-16T02:19:53.085Z,51.59
2022-11-16T02:24:56.518Z,51.54
2022-11-16T02:30:00.001Z,51.64
2022-11-16T02:35:03.421Z,51.65
2022-11-16T02:40:07.920Z,51.61
2022-11-16T02:45:11.325Z,51.69
2022-11-16T02:50:14.717Z,51.75
2022-11-16T02:55:18.125Z,51.71
2022-11-16T03:00:21.537Z,51.77
2022-11-16T03:05:32.186Z,51.75
2022-11-16T03:10:53.301Z,51.76
2022-11-16T03:15:56.817Z,51.75
2022-11-16T03:21:00.240Z,51.81
2022-11-16T03:26:03.665Z,51.78
2022-11-16T03:31:07.073Z,51.88
2022-11-16T03:36:10.472Z,51.91
2022-11-16T03:41:13.873Z,51.89
2022-11-16T03:46:17.274Z,51.93
2022-11-16T03:51:20.665Z,51.99
2022-11-16T03:56:24.157Z,51.90
2022-11-16T04:01:27.646Z,51.96
2022-11-16T04:06:48.951Z,52.14
2022-11-16T04:12:10.504Z,52.23
2022-11-16T04:17:31.632Z,52.16
2022-11-16T04:22:54.013Z,52.26
2022-11-16T04:28:16.596Z,52.18
2022-11-16T04:33:38.209Z,52.31
2022-11-16T04:38:41.633Z,52.19
2022-11-16T04:43:45.045Z,52.24
2022-11-16T04:48:48.459Z,52.27
2022-11-16T04:53:51.885Z,52.25
2022-11-16T04:58:55.317Z,52.31
2022-11-16T05:03:58.733Z,52.30
2022-11-16T05:09:02.249Z,52.36
2022-11-16T05:14:06.329Z,52.28
2022-11-16T05:19:27.436Z,52.33
2022-11-16T05:24:36.988Z,52.38
2022-11-16T05:29:40.414Z,52.37
2022-11-16T05:34:43.832Z,52.41
2022-11-16T05:39:47.230Z,52.38
2022-11-16T05:44:50.655Z,52.44
2022-11-16T05:49:54.081Z,52.52
2022-11-16T05:54:57.466Z,52.52
2022-11-16T06:00:01.041Z,52.54
2022-11-16T06:05:04.469Z,52.51
2022-11-16T06:10:07.889Z,52.63
2022-11-16T06:15:11.298Z,52.85
2022-11-16T06:20:14.721Z,52.75
2022-11-16T06:25:18.157Z,52.79
2022-11-16T06:30:21.618Z,52.84
2022-11-16T06:35:25.028Z,52.86
2022-11-16T06:40:28.455Z,52.85
2022-11-16T06:45:31.863Z,52.79
2022-11-16T06:50:37.293Z,52.92
2022-11-16T06:55:40.702Z,52.89
2022-11-16T07:00:44.185Z,53.11
2022-11-16T07:05:47.660Z,52.95
2022-11-16T07:10:51.051Z,52.91
2022-11-16T07:15:54.509Z,53.08
2022-11-16T07:20:58.930Z,53.24
2022-11-16T07:26:02.358Z,53.23
2022-11-16T07:31:05.784Z,53.07
2022-11-16T07:36:09.169Z,53.07
2022-11-16T07:41:13.683Z,53.01
2022-11-16T07:46:45.193Z,53.21
2022-11-16T07:51:40.544Z,53.24
2022-11-16T07:56:43.953Z,53.28
2022-11-16T08:01:47.467Z,53.25
2022-11-16T08:06:53.132Z,53.22
2022-11-16T08:11:56.730Z,53.13
2022-11-16T08:17:00.153Z,53.29
2022-11-16T08:22:03.641Z,53.49
2022-11-16T08:27:07.108Z,53.49
2022-11-16T08:32:10.522Z,53.34
2022-11-16T08:37:14.009Z,53.45
2022-11-16T08:42:17.491Z,53.47
2022-11-16T08:47:20.953Z,53.56
2022-11-16T08:52:24.371Z,54.13
2022-11-16T08:57:27.829Z,53.93
2022-11-16T09:02:31.818Z,55.17
2022-11-16T09:07:35.350Z,54.44
2022-11-16T09:12:39.001Z,54.16
2022-11-16T09:17:42.400Z,54.89
2022-11-16T09:22:45.840Z,54.96
2022-11-16T09:27:49.260Z,54.79
2022-11-16T09:32:52.746Z,54.99
2022-11-16T09:37:56.269Z,55.02
2022-11-16T09:42:59.785Z,55.12
2022-11-16T09:48:03.286Z,54.99
2022-11-16T09:53:06.815Z,55.03
2022-11-16T09:58:10.250Z,55.09
2022-11-16T10:03:14.010Z,55.07
2022-11-16T10:08:17.488Z,55.09
2022-11-16T10:13:22.101Z,55.03
2022-11-16T10:18:25.776Z,55.05
2022-11-16T10:23:29.181Z,55.00
2022-11-16T10:28:32.776Z,54.80
2022-11-16T10:33:37.125Z,54.86
2022-11-16T10:38:41.006Z,54.87
2022-11-16T10:43:44.409Z,54.81
2022-11-16T10:48:47.815Z,54.71
2022-11-16T10:53:53.112Z,54.77
2022-11-16T10:58:56.559Z,54.85
2022-11-16T11:04:01.250Z,55.32
2022-11-16T11:09:04.671Z,55.59
2022-11-16T11:14:08.073Z,55.93
2022-11-16T11:19:11.586Z,55.83
2022-11-16T11:24:42.827Z,55.66
2022-11-16T11:29:38.840Z,55.87
2022-11-16T11:34:42.806Z,55.93
2022-11-16T11:39:46.276Z,55.85
2022-11-16T11:44:51.940Z,56.23
2022-11-16T11:49:55.430Z,56.14
2022-11-16T11:54:58.882Z,59.38
2022-11-16T12:00:02.316Z,58.82
2022-11-16T12:05:05.907Z,57.47
2022-11-16T12:10:09.365Z,57.11
2022-11-16T12:15:12.795Z,56.52
2022-11-16T12:20:16.301Z,56.14
2022-11-16T12:25:19.713Z,55.68
2022-11-16T12:30:23.136Z,55.28
2022-11-16T12:35:26.635Z,55.12
2022-11-16T12:40:30.042Z,54.96
2022-11-16T12:45:33.462Z,54.58
2022-11-16T12:50:36.868Z,54.54
2022-11-16T12:55:40.388Z,54.52
2022-11-16T13:00:44.759Z,54.58
2022-11-16T13:05:48.211Z,54.51
2022-11-16T13:10:51.764Z,54.82
2022-11-16T13:15:55.203Z,55.13
2022-11-16T13:20:58.626Z,54.74
2022-11-16T13:26:02.088Z,54.49
2022-11-16T13:31:05.590Z,54.23
2022-11-16T13:36:09.051Z,54.13
2022-11-16T13:41:12.515Z,54.77
2022-11-16T13:46:54.843Z,54.51
2022-11-16T13:51:51.754Z,54.25
2022-11-16T13:56:55.167Z,54.83
2022-11-16T14:01:58.764Z,54.12
2022-11-16T14:07:02.299Z,54.18
2022-11-16T14:12:05.792Z,55.09
2022-11-16T14:17:09.612Z,55.48
2022-11-16T14:22:13.098Z,55.96
2022-11-16T14:27:17.025Z,56.91
2022-11-16T14:32:20.454Z,56.25
2022-11-16T14:37:24.489Z,55.67
2022-11-16T14:42:37.980Z,55.86
2022-11-16T14:47:46.535Z,55.41
2022-11-16T14:52:49.986Z,54.84
2022-11-16T14:57:53.389Z,54.13
2022-11-16T15:03:02.346Z,53.78
2022-11-16T15:08:06.338Z,53.52
2022-11-16T15:13:09.735Z,53.51
2022-11-16T15:18:13.153Z,53.36
2022-11-16T15:23:16.557Z,53.51
2022-11-16T15:28:19.986Z,53.03
2022-11-16T15:33:23.389Z,52.94
2022-11-16T15:38:26.788Z,52.98
2022-11-16T15:43:30.244Z,52.66
2022-11-16T15:48:34.006Z,52.35
2022-11-16T15:53:37.793Z,51.94
2022-11-16T15:58:41.348Z,51.70
2022-11-16T16:03:44.773Z,51.52
2022-11-16T16:08:48.187Z,51.69
2022-11-16T16:13:51.616Z,51.81
2022-11-16T16:18:55.054Z,51.34
2022-11-16T16:23:58.488Z,52.22
2022-11-16T16:29:01.882Z,52.02
2022-11-16T16:34:05.284Z,52.19
2022-11-16T16:39:08.718Z,52.16
2022-11-16T16:44:12.118Z,52.21
2022-11-16T16:49:15.520Z,52.43
2022-11-16T16:54:20.012Z,52.13
2022-11-16T16:59:23.421Z,51.85
2022-11-16T17:04:26.861Z,52.37
2022-11-16T17:09:30.470Z,52.35
2022-11-16T17:14:33.892Z,52.32
2022-11-16T17:19:37.381Z,52.34
2022-11-16T17:24:40.797Z,52.08
2022-11-16T17:29:44.196Z,52.04
2022-11-16T17:34:47.590Z,52.01
2022-11-16T17:39:50.983Z,51.74
2022-11-16T17:44:55.180Z,51.67
2022-11-16T17:50:01.853Z,51.79
2022-11-16T18:01:12.240Z,51.74
2022-11-16T18:06:15.750Z,51.40
2022-11-16T18:11:19.204Z,51.37
2022-11-16T18:16:22.616Z,51.04
2022-11-16T18:21:25.999Z,50.69
2022-11-16T18:26:29.455Z,50.46
2022-11-16T18:31:34.009Z,49.92
2022-11-16T18:36:37.441Z,50.56
2022-11-16T18:41:40.845Z,50.49
2022-11-16T18:46:44.265Z,50.93
2022-11-16T18:51:47.685Z,50.09
2022-11-16T18:56:51.089Z,50.42
2022-11-16T19:01:54.493Z,50.58
2022-11-16T19:06:58.027Z,49.88
2022-11-16T19:12:01.568Z,50.01
2022-11-16T19:17:05.296Z,49.96
2022-11-16T19:22:08.812Z,49.41
2022-11-16T19:27:13.213Z,48.46
2022-11-16T19:32:16.698Z,49.07
2022-11-16T19:37:20.100Z,48.96
2022-11-16T19:42:23.521Z,49.26
2022-11-16T19:47:26.985Z,49.68
2022-11-16T19:52:32.440Z,49.89
2022-11-16T19:57:35.840Z,49.35
2022-11-16T20:02:39.245Z,49.13
2022-11-16T20:07:44.632Z,49.35
2022-11-16T20:12:49.708Z,48.37
2022-11-16T20:17:56.282Z,48.46
2022-11-16T20:22:59.668Z,48.79
2022-11-16T20:28:03.112Z,48.24
2022-11-16T20:33:06.521Z,48.37
2022-11-16T20:38:09.917Z,47.75
2022-11-16T20:43:14.466Z,47.96
2022-11-16T20:48:17.866Z,47.59
2022-11-16T20:53:22.350Z,47.09
2022-11-16T20:58:25.778Z,47.14
2022-11-16T21:03:29.193Z,47.57
2022-11-16T21:08:32.627Z,47.00
2022-11-16T21:13:53.921Z,47.14
2022-11-16T21:18:57.354Z,46.65
2022-11-16T21:24:00.760Z,47.30
2022-11-16T21:29:04.275Z,47.42
2022-11-16T21:34:07.792Z,47.44
2022-11-16T21:39:11.204Z,47.44
2022-11-16T21:44:14.596Z,46.96
2022-11-16T21:49:18.206Z,46.84
2022-11-16T21:54:41.586Z,46.62
2022-11-16T21:59:45.130Z,46.42
2022-11-16T22:05:06.124Z,46.19
2022-11-16T22:10:09.526Z,46.46
2022-11-16T22:15:13.102Z,46.03
2022-11-16T22:20:16.545Z,46.21
2022-11-16T22:25:20.039Z,45.60
2022-11-16T22:30:23.527Z,45.94
2022-11-16T22:35:27.061Z,45.97
2022-11-16T22:40:30.493Z,46.63
2022-11-16T22:45:33.989Z,46.58
2022-11-16T22:50:37.464Z,45.54
2022-11-16T22:55:40.949Z,46.22
2022-11-16T23:00:44.545Z,46.24
2022-11-16T23:05:47.980Z,45.93
2022-11-16T23:11:05.302Z,45.02
2022-11-16T23:16:08.813Z,45.74
2022-11-16T23:21:30.284Z,45.82
2022-11-16T23:26:51.690Z,45.58
2022-11-16T23:31:55.214Z,45.80
2022-11-16T23:36:58.816Z,46.02
2022-11-16T23:42:21.362Z,45.71
2022-11-16T23:47:24.845Z,46.19
2022-11-16T23:52:28.428Z,46.13
2022-11-16T23:57:31.872Z,45.80
